sensor_id;sensor_type;location;lat;lon;timestamp;temperature;humidity
9519;DHT22;4797;50.220;8.782;2023-11-19T07:28:42;10.10;99.80
9519;DHT22;4797;50.220;8.782;2023-11-19T07:31:12;10.10;99.80
9519;DHT22;4797;50.220;8.782;2023-11-19T07:33:40;10.20;99.80
9519;DHT22;4797;50.220;8.782;2023-11-19T07:36:09;10.20;99.80
9519;DHT22;4797;50.220;8.782;2023-11-19T07:38:37;10.30;99.80
9519;DHT22;4797;50.220;8.782;2023-11-19T07:41:08;10.40;99.80
9519;DHT22;4797;50.220;8.782;2023-11-19T07:43:39;10.50;99.80
9519;DHT22;4797;50.220;8.782;2023-11-19T07:46:12;10.50;99.80
9519;DHT22;4797;50.220;8.782;2023-11-19T07:48:41;10.60;99.80
9519;DHT22;4797;50.220;8.782;2023-11-19T07:51:11;10.60;99.80
9519;DHT22;4797;50.220;8.782;2023-11-19T07:53:39;10.70;99.80
9519;DHT22;4797;50.220;8.782;2023-11-19T07:56:07;10.80;99.80
9519;DHT22;4797;50.220;8.782;2023-11-19T07:58:36;10.80;99.80
9519;DHT22;4797;50.220;8.782;2023-11-19T08:01:05;10.90;99.80
9519;DHT22;4797;50.220;8.782;2023-11-19T08:03:34;10.90;99.80
9519;DHT22;4797;50.220;8.782;2023-11-19T08:06:03;11.00;99.80
9519;DHT22;4797;50.220;8.782;2023-11-19T08:08:31;11.00;99.80
9519;DHT22;4797;50.220;8.782;2023-11-19T08:11:01;11.10;99.80
9519;DHT22;4797;50.220;8.782;2023-11-19T08:13:29;11.10;99.80
9519;DHT22;4797;50.220;8.782;2023-11-19T08:15:57;11.20;99.80
9519;DHT22;4797;50.220;8.782;2023-11-19T08:18:25;11.20;99.80
9519;DHT22;4797;50.220;8.782;2023-11-19T08:20:55;11.20;99.80
9519;DHT22;4797;50.220;8.782;2023-11-19T08:23:24;11.30;99.80
9519;DHT22;4797;50.220;8.782;2023-11-19T08:25:54;11.40;99.80
9519;DHT22;4797;50.220;8.782;2023-11-19T08:28:22;11.40;99.80
9519;DHT22;4797;50.220;8.782;2023-11-19T08:30:50;11.40;99.80
9519;DHT22;4797;50.220;8.782;2023-11-19T08:33:17;11.50;99.80
9519;DHT22;4797;50.220;8.782;2023-11-19T08:35:45;11.50;99.80
9519;DHT22;4797;50.220;8.782;2023-11-19T08:38:15;11.50;99.80
9519;DHT22;4797;50.220;8.782;2023-11-19T08:40:57;11.50;99.80
9519;DHT22;4797;50.220;8.782;2023-11-19T08:43:27;11.50;99.80
9519;DHT22;4797;50.220;8.782;2023-11-19T08:45:55;11.50;99.80
9519;DHT22;4797;50.220;8.782;2023-11-19T08:48:23;11.60;99.80
9519;DHT22;4797;50.220;8.782;2023-11-19T08:50:50;11.60;99.80
9519;DHT22;4797;50.220;8.782;2023-11-19T08:53:20;11.50;99.80
9519;DHT22;4797;50.220;8.782;2023-11-19T08:55:48;11.40;99.80
9519;DHT22;4797;50.220;8.782;2023-11-19T08:58:16;11.40;99.80
9519;DHT22;4797;50.220;8.782;2023-11-19T09:00:45;11.40;99.80
9519;DHT22;4797;50.220;8.782;2023-11-19T09:03:13;11.40;99.80
9519;DHT22;4797;50.220;8.782;2023-11-19T09:05:41;11.40;99.80
9519;DHT22;4797;50.220;8.782;2023-11-19T09:08:10;11.60;99.80
9519;DHT22;4797;50.220;8.782;2023-11-19T09:10:39;11.80;99.80
9519;DHT22;4797;50.220;8.782;2023-11-19T09:13:07;12.00;99.80
9519;DHT22;4797;50.220;8.782;2023-11-19T09:15:35;11.90;99.80
9519;DHT22;4797;50.220;8.782;2023-11-19T09:18:04;11.90;99.80
9519;DHT22;4797;50.220;8.782;2023-11-19T09:20:32;12.00;99.80
9519;DHT22;4797;50.220;8.782;2023-11-19T09:23:05;12.00;99.80
9519;DHT22;4797;50.220;8.782;2023-11-19T09:25:33;12.10;99.80
9519;DHT22;4797;50.220;8.782;2023-11-19T09:28:05;12.10;99.80
9519;DHT22;4797;50.220;8.782;2023-11-19T09:30:35;12.10;99.80
9519;DHT22;4797;50.220;8.782;2023-11-19T09:33:03;12.10;99.80
9519;DHT22;4797;50.220;8.782;2023-11-19T09:35:32;12.20;99.80
9519;DHT22;4797;50.220;8.782;2023-11-19T09:38:00;12.30;99.80
9519;DHT22;4797;50.220;8.782;2023-11-19T09:40:31;12.40;99.80
9519;DHT22;4797;50.220;8.782;2023-11-19T09:42:59;12.40;99.80
9519;DHT22;4797;50.220;8.782;2023-11-19T09:45:29;12.50;99.80
9519;DHT22;4797;50.220;8.782;2023-11-19T09:48:01;12.50;99.80
9519;DHT22;4797;50.220;8.782;2023-11-19T09:50:31;12.60;99.80
9519;DHT22;4797;50.220;8.782;2023-11-19T09:52:59;12.60;99.80
9519;DHT22;4797;50.220;8.782;2023-11-19T09:55:27;12.70;99.80
9519;DHT22;4797;50.220;8.782;2023-11-19T09:57:55;12.70;99.80
9519;DHT22;4797;50.220;8.782;2023-11-19T10:00:28;12.80;99.80
9519;DHT22;4797;50.220;8.782;2023-11-19T10:02:56;12.90;99.80
9519;DHT22;4797;50.220;8.782;2023-11-19T10:05:25;12.90;99.80
9519;DHT22;4797;50.220;8.782;2023-11-19T10:07:55;13.00;99.80
9519;DHT22;4797;50.220;8.782;2023-11-19T10:10:23;13.10;99.80
9519;DHT22;4797;50.220;8.782;2023-11-19T10:12:51;13.10;99.80
9519;DHT22;4797;50.220;8.782;2023-11-19T10:15:23;13.20;99.80
9519;DHT22;4797;50.220;8.782;2023-11-19T10:17:56;13.30;99.80
9519;DHT22;4797;50.220;8.782;2023-11-19T10:20:25;13.30;99.80
9519;DHT22;4797;50.220;8.782;2023-11-19T10:22:53;13.30;99.80
9519;DHT22;4797;50.220;8.782;2023-11-19T10:25:23;13.40;99.80
9519;DHT22;4797;50.220;8.782;2023-11-19T10:27:51;13.50;99.80
9519;DHT22;4797;50.220;8.782;2023-11-19T10:30:21;13.50;99.80
9519;DHT22;4797;50.220;8.782;2023-11-19T10:33:04;13.60;99.80
9519;DHT22;4797;50.220;8.782;2023-11-19T10:35:34;13.70;99.80
9519;DHT22;4797;50.220;8.782;2023-11-19T10:38:13;13.80;99.80
9519;DHT22;4797;50.220;8.782;2023-11-19T10:40:42;13.80;99.80
9519;DHT22;4797;50.220;8.782;2023-11-19T10:43:10;13.90;99.80
9519;DHT22;4797;50.220;8.782;2023-11-19T10:45:38;14.00;99.80
9519;DHT22;4797;50.220;8.782;2023-11-19T10:48:08;14.30;99.80
9519;DHT22;4797;50.220;8.782;2023-11-19T10:50:38;14.40;99.80
9519;DHT22;4797;50.220;8.782;2023-11-19T10:53:07;14.50;99.80
9519;DHT22;4797;50.220;8.782;2023-11-19T10:55:38;14.70;99.80
9519;DHT22;4797;50.220;8.782;2023-11-19T10:58:07;14.90;99.80
9519;DHT22;4797;50.220;8.782;2023-11-19T11:00:38;14.80;99.80
9519;DHT22;4797;50.220;8.782;2023-11-19T11:03:11;14.60;99.80
9519;DHT22;4797;50.220;8.782;2023-11-19T11:05:43;14.30;99.80
9519;DHT22;4797;50.220;8.782;2023-11-19T11:08:11;14.20;99.80
9519;DHT22;4797;50.220;8.782;2023-11-19T11:10:43;14.20;99.80
9519;DHT22;4797;50.220;8.782;2023-11-19T11:13:14;14.00;99.80
9519;DHT22;4797;50.220;8.782;2023-11-19T11:15:42;14.00;99.80
9519;DHT22;4797;50.220;8.782;2023-11-19T11:18:14;14.00;99.80
9519;DHT22;4797;50.220;8.782;2023-11-19T11:20:44;13.90;99.80
9519;DHT22;4797;50.220;8.782;2023-11-19T11:23:36;13.80;99.80
9519;DHT22;4797;50.220;8.782;2023-11-19T11:26:27;13.90;99.80
9519;DHT22;4797;50.220;8.782;2023-11-19T11:29:01;14.10;99.80
9519;DHT22;4797;50.220;8.782;2023-11-19T11:31:36;14.50;99.80
9519;DHT22;4797;50.220;8.782;2023-11-19T11:34:27;15.50;99.80
9519;DHT22;4797;50.220;8.782;2023-11-19T11:37:16;16.40;99.80
9519;DHT22;4797;50.220;8.782;2023-11-19T11:39:46;16.10;99.80
9519;DHT22;4797;50.220;8.782;2023-11-19T11:42:33;15.60;99.80
9519;DHT22;4797;50.220;8.782;2023-11-19T11:45:03;15.30;99.80
9519;DHT22;4797;50.220;8.782;2023-11-19T11:48:11;15.10;99.80
9519;DHT22;4797;50.220;8.782;2023-11-19T11:50:55;14.90;99.80
9519;DHT22;4797;50.220;8.782;2023-11-19T11:53:26;15.30;99.80
9519;DHT22;4797;50.220;8.782;2023-11-19T11:55:55;17.50;99.80
9519;DHT22;4797;50.220;8.782;2023-11-19T11:58:36;19.90;99.80
9519;DHT22;4797;50.220;8.782;2023-11-19T12:01:05;19.50;99.50
9519;DHT22;4797;50.220;8.782;2023-11-19T12:03:33;17.90;99.80
9519;DHT22;4797;50.220;8.782;2023-11-19T12:06:04;16.60;99.80
9519;DHT22;4797;50.220;8.782;2023-11-19T12:08:34;16.00;99.80
9519;DHT22;4797;50.220;8.782;2023-11-19T12:11:19;15.40;99.80
9519;DHT22;4797;50.220;8.782;2023-11-19T12:13:53;14.90;99.80
9519;DHT22;4797;50.220;8.782;2023-11-19T12:16:22;14.80;99.80
9519;DHT22;4797;50.220;8.782;2023-11-19T12:18:51;14.80;99.80
9519;DHT22;4797;50.220;8.782;2023-11-19T12:21:31;14.80;99.80
9519;DHT22;4797;50.220;8.782;2023-11-19T12:23:59;15.10;99.80
9519;DHT22;4797;50.220;8.782;2023-11-19T12:26:35;16.10;99.80
9519;DHT22;4797;50.220;8.782;2023-11-19T12:29:03;17.40;99.80
9519;DHT22;4797;50.220;8.782;2023-11-19T12:31:35;18.10;99.80
9519;DHT22;4797;50.220;8.782;2023-11-19T12:34:08;19.90;99.80
9519;DHT22;4797;50.220;8.782;2023-11-19T12:36:41;22.00;97.60
9519;DHT22;4797;50.220;8.782;2023-11-19T12:39:10;22.00;94.00
9519;DHT22;4797;50.220;8.782;2023-11-19T12:42:00;20.70;97.00
9519;DHT22;4797;50.220;8.782;2023-11-19T12:44:28;19.20;99.80
9519;DHT22;4797;50.220;8.782;2023-11-19T12:47:04;18.60;99.80
9519;DHT22;4797;50.220;8.782;2023-11-19T12:49:33;18.10;99.80
9519;DHT22;4797;50.220;8.782;2023-11-19T12:52:11;17.70;99.80
9519;DHT22;4797;50.220;8.782;2023-11-19T12:54:40;17.30;99.80
9519;DHT22;4797;50.220;8.782;2023-11-19T12:57:08;17.10;99.80
9519;DHT22;4797;50.220;8.782;2023-11-19T12:59:39;17.00;99.80
9519;DHT22;4797;50.220;8.782;2023-11-19T13:02:07;16.90;99.80
9519;DHT22;4797;50.220;8.782;2023-11-19T13:04:35;17.20;99.80
9519;DHT22;4797;50.220;8.782;2023-11-19T13:07:04;17.30;99.80
9519;DHT22;4797;50.220;8.782;2023-11-19T13:09:33;17.00;99.80
9519;DHT22;4797;50.220;8.782;2023-11-19T13:12:12;16.80;99.80
9519;DHT22;4797;50.220;8.782;2023-11-19T13:14:40;16.50;99.80
9519;DHT22;4797;50.220;8.782;2023-11-19T13:17:09;16.10;99.80
9519;DHT22;4797;50.220;8.782;2023-11-19T13:19:40;15.70;99.80
9519;DHT22;4797;50.220;8.782;2023-11-19T13:22:10;15.40;99.80
9519;DHT22;4797;50.220;8.782;2023-11-19T13:24:37;15.20;99.80
9519;DHT22;4797;50.220;8.782;2023-11-19T13:27:07;15.00;99.80
9519;DHT22;4797;50.220;8.782;2023-11-19T13:29:35;14.90;99.80
9519;DHT22;4797;50.220;8.782;2023-11-19T13:32:03;14.80;99.80
9519;DHT22;4797;50.220;8.782;2023-11-19T13:34:32;14.70;99.80
9519;DHT22;4797;50.220;8.782;2023-11-19T13:37:00;14.70;99.80
9519;DHT22;4797;50.220;8.782;2023-11-19T13:39:29;14.60;99.80
9519;DHT22;4797;50.220;8.782;2023-11-19T13:41:57;14.60;99.80
9519;DHT22;4797;50.220;8.782;2023-11-19T13:44:29;14.60;99.80
9519;DHT22;4797;50.220;8.782;2023-11-19T13:46:57;14.60;99.80
9519;DHT22;4797;50.220;8.782;2023-11-19T13:49:25;14.70;99.80
9519;DHT22;4797;50.220;8.782;2023-11-19T13:51:54;14.90;99.80
9519;DHT22;4797;50.220;8.782;2023-11-19T13:54:23;15.90;99.80
9519;DHT22;4797;50.220;8.782;2023-11-19T13:56:54;16.90;99.80
9519;DHT22;4797;50.220;8.782;2023-11-19T13:59:24;16.80;99.80
9519;DHT22;4797;50.220;8.782;2023-11-19T14:01:52;16.50;99.80
9519;DHT22;4797;50.220;8.782;2023-11-19T14:04:20;16.20;99.80
9519;DHT22;4797;50.220;8.782;2023-11-19T14:06:48;16.00;99.80
9519;DHT22;4797;50.220;8.782;2023-11-19T14:09:16;15.90;99.80
9519;DHT22;4797;50.220;8.782;2023-11-19T14:11:44;16.10;99.80
9519;DHT22;4797;50.220;8.782;2023-11-19T14:14:16;16.20;99.80
9519;DHT22;4797;50.220;8.782;2023-11-19T14:16:46;16.10;99.80
9519;DHT22;4797;50.220;8.782;2023-11-19T14:19:14;15.90;99.80
9519;DHT22;4797;50.220;8.782;2023-11-19T14:21:45;15.70;99.80
9519;DHT22;4797;50.220;8.782;2023-11-19T14:24:14;15.60;99.80
9519;DHT22;4797;50.220;8.782;2023-11-19T14:26:42;15.50;99.80
9519;DHT22;4797;50.220;8.782;2023-11-19T14:29:12;15.50;99.80
9519;DHT22;4797;50.220;8.782;2023-11-19T14:31:41;15.50;99.80
9519;DHT22;4797;50.220;8.782;2023-11-19T14:34:09;15.30;99.80
9519;DHT22;4797;50.220;8.782;2023-11-19T14:36:37;15.30;99.80
9519;DHT22;4797;50.220;8.782;2023-11-19T14:39:05;15.20;99.80
9519;DHT22;4797;50.220;8.782;2023-11-19T14:41:33;15.10;99.80
9519;DHT22;4797;50.220;8.782;2023-11-19T14:44:01;15.10;99.80
9519;DHT22;4797;50.220;8.782;2023-11-19T14:46:30;15.10;99.80
9519;DHT22;4797;50.220;8.782;2023-11-19T14:49:02;14.90;99.80
9519;DHT22;4797;50.220;8.782;2023-11-19T14:51:30;14.80;99.80
9519;DHT22;4797;50.220;8.782;2023-11-19T14:53:58;14.60;99.80
9519;DHT22;4797;50.220;8.782;2023-11-19T14:56:28;14.50;99.80
9519;DHT22;4797;50.220;8.782;2023-11-19T14:58:56;14.40;99.80
9519;DHT22;4797;50.220;8.782;2023-11-19T15:01:25;14.40;99.80
9519;DHT22;4797;50.220;8.782;2023-11-19T15:03:55;14.20;99.80
9519;DHT22;4797;50.220;8.782;2023-11-19T15:06:29;14.20;99.80
9519;DHT22;4797;50.220;8.782;2023-11-19T15:08:59;14.00;99.80
9519;DHT22;4797;50.220;8.782;2023-11-19T15:11:27;13.90;99.80
9519;DHT22;4797;50.220;8.782;2023-11-19T15:13:55;13.90;99.80
9519;DHT22;4797;50.220;8.782;2023-11-19T15:16:26;13.80;99.80
9519;DHT22;4797;50.220;8.782;2023-11-19T15:18:58;13.70;99.80
9519;DHT22;4797;50.220;8.782;2023-11-19T15:21:28;13.60;99.80
9519;DHT22;4797;50.220;8.782;2023-11-19T15:23:56;13.60;99.80
9519;DHT22;4797;50.220;8.782;2023-11-19T15:26:24;13.60;99.80
9519;DHT22;4797;50.220;8.782;2023-11-19T15:28:52;13.50;99.80
9519;DHT22;4797;50.220;8.782;2023-11-19T15:31:22;13.40;99.80
9519;DHT22;4797;50.220;8.782;2023-11-19T15:33:52;13.30;99.80
9519;DHT22;4797;50.220;8.782;2023-11-19T15:36:30;13.20;99.80
9519;DHT22;4797;50.220;8.782;2023-11-19T15:39:02;13.10;99.80
9519;DHT22;4797;50.220;8.782;2023-11-19T15:41:36;13.10;99.80
9519;DHT22;4797;50.220;8.782;2023-11-19T15:44:06;13.10;99.80
9519;DHT22;4797;50.220;8.782;2023-11-19T15:46:34;13.10;99.80
9519;DHT22;4797;50.220;8.782;2023-11-19T15:49:02;13.20;99.80
9519;DHT22;4797;50.220;8.782;2023-11-19T15:51:32;13.20;99.80
9519;DHT22;4797;50.220;8.782;2023-11-19T15:54:00;13.30;99.80
9519;DHT22;4797;50.220;8.782;2023-11-19T15:56:28;13.30;99.80
9519;DHT22;4797;50.220;8.782;2023-11-19T15:58:57;13.20;99.80
9519;DHT22;4797;50.220;8.782;2023-11-19T16:01:25;13.10;99.80
9519;DHT22;4797;50.220;8.782;2023-11-19T16:03:58;13.00;99.80
9519;DHT22;4797;50.220;8.782;2023-11-19T16:06:26;13.00;99.80
9519;DHT22;4797;50.220;8.782;2023-11-19T16:08:55;13.00;99.80
9519;DHT22;4797;50.220;8.782;2023-11-19T16:11:23;13.00;99.80
9519;DHT22;4797;50.220;8.782;2023-11-19T16:13:56;13.00;99.80
9519;DHT22;4797;50.220;8.782;2023-11-19T16:16:24;13.00;99.80
9519;DHT22;4797;50.220;8.782;2023-11-19T16:18:52;13.00;99.80
9519;DHT22;4797;50.220;8.782;2023-11-19T16:21:20;13.00;99.80
9519;DHT22;4797;50.220;8.782;2023-11-19T16:23:48;13.10;99.80
9519;DHT22;4797;50.220;8.782;2023-11-19T16:26:18;13.10;99.80
9519;DHT22;4797;50.220;8.782;2023-11-19T16:28:46;13.10;99.80
9519;DHT22;4797;50.220;8.782;2023-11-19T16:31:13;13.00;99.80
9519;DHT22;4797;50.220;8.782;2023-11-19T16:33:42;13.00;99.80
9519;DHT22;4797;50.220;8.782;2023-11-19T16:36:11;12.90;99.80
9519;DHT22;4797;50.220;8.782;2023-11-19T16:38:40;12.90;99.80
9519;DHT22;4797;50.220;8.782;2023-11-19T16:41:10;12.90;99.80
9519;DHT22;4797;50.220;8.782;2023-11-19T16:43:41;12.90;99.80
9519;DHT22;4797;50.220;8.782;2023-11-19T16:46:10;12.80;99.80
9519;DHT22;4797;50.220;8.782;2023-11-19T16:48:38;12.70;99.80
9519;DHT22;4797;50.220;8.782;2023-11-19T16:51:10;12.70;99.80
9519;DHT22;4797;50.220;8.782;2023-11-19T16:53:45;12.60;99.80
9519;DHT22;4797;50.220;8.782;2023-11-19T16:56:14;12.60;99.80
9519;DHT22;4797;50.220;8.782;2023-11-19T16:58:43;12.60;99.80
9519;DHT22;4797;50.220;8.782;2023-11-19T17:01:13;12.60;99.80
9519;DHT22;4797;50.220;8.782;2023-11-19T17:03:42;12.60;99.80
9519;DHT22;4797;50.220;8.782;2023-11-19T17:06:10;12.60;99.80
9519;DHT22;4797;50.220;8.782;2023-11-19T17:08:38;12.50;99.80
9519;DHT22;4797;50.220;8.782;2023-11-19T17:11:08;12.50;99.80
9519;DHT22;4797;50.220;8.782;2023-11-19T17:13:36;12.50;99.80
9519;DHT22;4797;50.220;8.782;2023-11-19T17:16:06;12.40;99.80
9519;DHT22;4797;50.220;8.782;2023-11-19T17:18:35;12.40;99.80
9519;DHT22;4797;50.220;8.782;2023-11-19T17:21:04;12.40;99.80
9519;DHT22;4797;50.220;8.782;2023-11-19T17:23:35;12.40;99.80
9519;DHT22;4797;50.220;8.782;2023-11-19T17:26:06;12.40;99.80
9519;DHT22;4797;50.220;8.782;2023-11-19T17:28:34;12.40;99.80
9519;DHT22;4797;50.220;8.782;2023-11-19T17:31:02;12.40;99.80
9519;DHT22;4797;50.220;8.782;2023-11-19T17:33:32;12.30;99.80
9519;DHT22;4797;50.220;8.782;2023-11-19T17:36:00;12.30;99.80
9519;DHT22;4797;50.220;8.782;2023-11-19T17:38:28;12.30;99.80
9519;DHT22;4797;50.220;8.782;2023-11-19T17:41:01;12.30;99.80
9519;DHT22;4797;50.220;8.782;2023-11-19T17:43:29;12.30;99.80
9519;DHT22;4797;50.220;8.782;2023-11-19T17:45:57;12.30;99.80
9519;DHT22;4797;50.220;8.782;2023-11-19T17:48:28;12.20;99.80
9519;DHT22;4797;50.220;8.782;2023-11-19T17:50:57;12.10;99.80
9519;DHT22;4797;50.220;8.782;2023-11-19T17:53:25;11.90;99.80
9519;DHT22;4797;50.220;8.782;2023-11-19T17:55:53;11.80;99.80
9519;DHT22;4797;50.220;8.782;2023-11-19T17:58:21;11.70;99.80
9519;DHT22;4797;50.220;8.782;2023-11-19T18:00:49;11.60;99.80
9519;DHT22;4797;50.220;8.782;2023-11-19T18:03:17;11.50;99.80
9519;DHT22;4797;50.220;8.782;2023-11-19T18:05:45;11.40;99.80
9519;DHT22;4797;50.220;8.782;2023-11-19T18:08:16;11.40;99.80
9519;DHT22;4797;50.220;8.782;2023-11-19T18:10:48;11.40;99.80
9519;DHT22;4797;50.220;8.782;2023-11-19T18:13:19;11.50;99.80
9519;DHT22;4797;50.220;8.782;2023-11-19T18:15:48;11.50;99.80
9519;DHT22;4797;50.220;8.782;2023-11-19T18:18:16;11.60;99.80
9519;DHT22;4797;50.220;8.782;2023-11-19T18:20:44;11.70;99.80
9519;DHT22;4797;50.220;8.782;2023-11-19T18:23:13;11.70;99.80
9519;DHT22;4797;50.220;8.782;2023-11-19T18:25:42;11.80;99.80
9519;DHT22;4797;50.220;8.782;2023-11-19T18:28:12;11.90;99.80
9519;DHT22;4797;50.220;8.782;2023-11-19T18:30:40;11.90;99.80
9519;DHT22;4797;50.220;8.782;2023-11-19T18:33:08;11.90;99.80
9519;DHT22;4797;50.220;8.782;2023-11-19T18:35:36;11.90;99.80
9519;DHT22;4797;50.220;8.782;2023-11-19T18:38:04;11.90;99.80
9519;DHT22;4797;50.220;8.782;2023-11-19T18:40:33;11.90;99.80
9519;DHT22;4797;50.220;8.782;2023-11-19T18:43:02;11.90;99.80
9519;DHT22;4797;50.220;8.782;2023-11-19T18:45:30;11.90;99.80
9519;DHT22;4797;50.220;8.782;2023-11-19T18:47:58;11.90;99.80
9519;DHT22;4797;50.220;8.782;2023-11-19T18:50:27;11.90;99.80
9519;DHT22;4797;50.220;8.782;2023-11-19T18:52:55;11.80;99.80
9519;DHT22;4797;50.220;8.782;2023-11-19T18:55:23;11.80;99.80
9519;DHT22;4797;50.220;8.782;2023-11-19T18:57:51;11.70;99.80
9519;DHT22;4797;50.220;8.782;2023-11-19T19:00:20;11.60;99.80
9519;DHT22;4797;50.220;8.782;2023-11-19T19:02:49;11.60;99.80
9519;DHT22;4797;50.220;8.782;2023-11-19T19:05:20;11.50;99.80
9519;DHT22;4797;50.220;8.782;2023-11-19T19:07:49;11.50;99.80
9519;DHT22;4797;50.220;8.782;2023-11-19T19:10:19;11.50;99.80
9519;DHT22;4797;50.220;8.782;2023-11-19T19:12:47;11.50;99.80
9519;DHT22;4797;50.220;8.782;2023-11-19T19:15:15;11.60;99.80
9519;DHT22;4797;50.220;8.782;2023-11-19T19:17:44;11.60;99.80
9519;DHT22;4797;50.220;8.782;2023-11-19T19:20:13;11.60;99.80
9519;DHT22;4797;50.220;8.782;2023-11-19T19:22:41;11.60;99.80
9519;DHT22;4797;50.220;8.782;2023-11-19T19:25:09;11.60;99.80
9519;DHT22;4797;50.220;8.782;2023-11-19T19:27:40;11.60;99.80
9519;DHT22;4797;50.220;8.782;2023-11-19T19:30:08;11.70;99.80
9519;DHT22;4797;50.220;8.782;2023-11-19T19:32:37;11.70;99.80
9519;DHT22;4797;50.220;8.782;2023-11-19T19:35:14;11.70;99.80
9519;DHT22;4797;50.220;8.782;2023-11-19T19:37:53;11.70;99.80
9519;DHT22;4797;50.220;8.782;2023-11-19T19:40:34;11.70;99.80
9519;DHT22;4797;50.220;8.782;2023-11-19T19:43:03;11.80;99.80
9519;DHT22;4797;50.220;8.782;2023-11-19T19:45:35;11.80;99.80
9519;DHT22;4797;50.220;8.782;2023-11-19T19:48:03;11.80;99.80
9519;DHT22;4797;50.220;8.782;2023-11-19T19:50:33;11.90;99.80
9519;DHT22;4797;50.220;8.782;2023-11-19T19:53:01;11.80;99.80
9519;DHT22;4797;50.220;8.782;2023-11-19T19:55:31;11.80;99.80
9519;DHT22;4797;50.220;8.782;2023-11-19T19:57:59;11.90;99.80
9519;DHT22;4797;50.220;8.782;2023-11-19T20:00:28;12.00;99.80
9519;DHT22;4797;50.220;8.782;2023-11-19T20:03:06;12.00;99.80
9519;DHT22;4797;50.220;8.782;2023-11-19T20:05:35;12.00;99.80
9519;DHT22;4797;50.220;8.782;2023-11-19T20:08:04;12.10;99.80
9519;DHT22;4797;50.220;8.782;2023-11-19T20:10:33;12.10;99.80
9519;DHT22;4797;50.220;8.782;2023-11-19T20:13:02;12.10;99.80
9519;DHT22;4797;50.220;8.782;2023-11-19T20:15:36;12.10;99.80
9519;DHT22;4797;50.220;8.782;2023-11-19T20:18:07;12.10;99.80
9519;DHT22;4797;50.220;8.782;2023-11-19T20:20:38;12.10;99.80
9519;DHT22;4797;50.220;8.782;2023-11-19T20:23:07;12.10;99.80
9519;DHT22;4797;50.220;8.782;2023-11-19T20:25:36;12.10;99.80
9519;DHT22;4797;50.220;8.782;2023-11-19T20:28:04;12.10;99.80
9519;DHT22;4797;50.220;8.782;2023-11-19T20:30:46;12.20;99.80
9519;DHT22;4797;50.220;8.782;2023-11-19T20:33:14;12.20;99.80
9519;DHT22;4797;50.220;8.782;2023-11-19T20:35:44;12.20;99.80
9519;DHT22;4797;50.220;8.782;2023-11-19T20:38:12;12.10;99.80
9519;DHT22;4797;50.220;8.782;2023-11-19T20:40:40;12.10;99.80
9519;DHT22;4797;50.220;8.782;2023-11-19T20:43:09;12.10;99.80
9519;DHT22;4797;50.220;8.782;2023-11-19T20:45:37;12.10;99.80
9519;DHT22;4797;50.220;8.782;2023-11-19T20:48:07;12.10;99.80
9519;DHT22;4797;50.220;8.782;2023-11-19T20:50:37;12.20;99.80
9519;DHT22;4797;50.220;8.782;2023-11-19T20:53:06;12.20;99.80
9519;DHT22;4797;50.220;8.782;2023-11-19T20:55:35;12.10;99.80
9519;DHT22;4797;50.220;8.782;2023-11-19T20:58:04;12.20;99.80
9519;DHT22;4797;50.220;8.782;2023-11-19T21:00:37;12.20;99.80
9519;DHT22;4797;50.220;8.782;2023-11-19T21:03:08;12.20;99.80
9519;DHT22;4797;50.220;8.782;2023-11-19T21:05:37;12.20;99.80
9519;DHT22;4797;50.220;8.782;2023-11-19T21:08:07;12.20;99.80
9519;DHT22;4797;50.220;8.782;2023-11-19T21:10:35;12.20;99.80
9519;DHT22;4797;50.220;8.782;2023-11-19T21:13:03;12.20;99.80
9519;DHT22;4797;50.220;8.782;2023-11-19T21:15:31;12.20;99.80
9519;DHT22;4797;50.220;8.782;2023-11-19T21:18:04;12.20;99.80
9519;DHT22;4797;50.220;8.782;2023-11-19T21:20:33;12.20;99.80
9519;DHT22;4797;50.220;8.782;2023-11-19T21:23:03;12.20;99.80
9519;DHT22;4797;50.220;8.782;2023-11-19T21:25:32;12.20;99.80
9519;DHT22;4797;50.220;8.782;2023-11-19T21:28:00;12.20;99.80
9519;DHT22;4797;50.220;8.782;2023-11-19T21:30:30;12.20;99.80
9519;DHT22;4797;50.220;8.782;2023-11-19T21:32:58;12.20;99.80
9519;DHT22;4797;50.220;8.782;2023-11-19T21:35:26;12.20;99.80
9519;DHT22;4797;50.220;8.782;2023-11-19T21:37:54;12.20;99.80
9519;DHT22;4797;50.220;8.782;2023-11-19T21:40:25;12.20;99.80
9519;DHT22;4797;50.220;8.782;2023-11-19T21:42:55;12.20;99.80
9519;DHT22;4797;50.220;8.782;2023-11-19T21:45:26;12.20;99.80
9519;DHT22;4797;50.220;8.782;2023-11-19T21:47:55;12.20;99.80
9519;DHT22;4797;50.220;8.782;2023-11-19T21:50:25;12.20;99.80
9519;DHT22;4797;50.220;8.782;2023-11-19T21:52:54;12.30;99.80
9519;DHT22;4797;50.220;8.782;2023-11-19T21:55:23;12.30;99.80
9519;DHT22;4797;50.220;8.782;2023-11-19T21:57:58;12.20;99.80
9519;DHT22;4797;50.220;8.782;2023-11-19T22:00:26;12.20;99.80
9519;DHT22;4797;50.220;8.782;2023-11-19T22:02:55;12.20;99.80
9519;DHT22;4797;50.220;8.782;2023-11-19T22:05:24;12.20;99.80
9519;DHT22;4797;50.220;8.782;2023-11-19T22:07:52;12.20;99.80
9519;DHT22;4797;50.220;8.782;2023-11-19T22:10:42;12.20;99.80
9519;DHT22;4797;50.220;8.782;2023-11-19T22:13:11;12.10;99.80
9519;DHT22;4797;50.220;8.782;2023-11-19T22:15:40;12.10;99.80
9519;DHT22;4797;50.220;8.782;2023-11-19T22:18:08;12.20;99.80
9519;DHT22;4797;50.220;8.782;2023-11-19T22:20:37;12.20;99.80
9519;DHT22;4797;50.220;8.782;2023-11-19T22:23:05;12.20;99.80
9519;DHT22;4797;50.220;8.782;2023-11-19T22:25:33;12.20;99.80
9519;DHT22;4797;50.220;8.782;2023-11-19T22:28:01;12.10;99.80
9519;DHT22;4797;50.220;8.782;2023-11-19T22:30:31;12.20;99.80
9519;DHT22;4797;50.220;8.782;2023-11-19T22:32:59;12.10;99.80
9519;DHT22;4797;50.220;8.782;2023-11-19T22:35:27;12.20;99.80
9519;DHT22;4797;50.220;8.782;2023-11-19T22:37:55;12.20;99.80
9519;DHT22;4797;50.220;8.782;2023-11-19T22:40:23;12.30;99.80
9519;DHT22;4797;50.220;8.782;2023-11-19T22:42:51;12.30;99.80
9519;DHT22;4797;50.220;8.782;2023-11-19T22:45:19;12.30;99.80
9519;DHT22;4797;50.220;8.782;2023-11-19T22:47:50;12.30;99.80
9519;DHT22;4797;50.220;8.782;2023-11-19T22:50:18;12.30;99.80
9519;DHT22;4797;50.220;8.782;2023-11-19T22:52:46;12.30;99.80
9519;DHT22;4797;50.220;8.782;2023-11-19T22:55:14;12.30;99.80
9519;DHT22;4797;50.220;8.782;2023-11-19T22:57:44;12.30;99.80
9519;DHT22;4797;50.220;8.782;2023-11-19T23:00:16;12.30;99.80
9519;DHT22;4797;50.220;8.782;2023-11-19T23:02:50;12.20;99.80
9519;DHT22;4797;50.220;8.782;2023-11-19T23:05:21;12.30;99.80
9519;DHT22;4797;50.220;8.782;2023-11-19T23:07:49;12.30;99.80
9519;DHT22;4797;50.220;8.782;2023-11-19T23:10:17;12.30;99.80
9519;DHT22;4797;50.220;8.782;2023-11-19T23:12:45;12.30;99.80
9519;DHT22;4797;50.220;8.782;2023-11-19T23:15:13;12.30;99.80
9519;DHT22;4797;50.220;8.782;2023-11-19T23:17:42;12.40;99.80
9519;DHT22;4797;50.220;8.782;2023-11-19T23:20:12;12.40;99.80
9519;DHT22;4797;50.220;8.782;2023-11-19T23:22:40;12.40;99.80
9519;DHT22;4797;50.220;8.782;2023-11-19T23:25:09;12.40;99.80
9519;DHT22;4797;50.220;8.782;2023-11-19T23:27:37;12.40;99.80
9519;DHT22;4797;50.220;8.782;2023-11-19T23:30:06;12.40;99.80
9519;DHT22;4797;50.220;8.782;2023-11-19T23:32:34;12.30;99.80
9519;DHT22;4797;50.220;8.782;2023-11-19T23:35:02;12.30;99.80
9519;DHT22;4797;50.220;8.782;2023-11-19T23:37:37;12.30;99.80
9519;DHT22;4797;50.220;8.782;2023-11-19T23:40:08;12.30;99.80
9519;DHT22;4797;50.220;8.782;2023-11-19T23:42:36;12.30;99.80
9519;DHT22;4797;50.220;8.782;2023-11-19T23:45:05;12.30;99.80
9519;DHT22;4797;50.220;8.782;2023-11-19T23:47:33;12.40;99.80